Time;durP1;ratioP1;P1;durP2;ratioP2;P2;SDS_P1;SDS_P2;PMS_P1;PMS_P2;Temp;Humidity;BMP_temperature;BMP_pressure;BME280_temperature;BME280_humidity;BME280_pressure;Samples;Min_cycle;Max_cycle;Signal;HPM_P1;HPM_P2
2023/09/09 00:01:31;;;;;;;9.88;7.32;;;18.30;99.90;;;;;;5057143;28;20179;-57
2023/09/09 00:03:58;;;;;;;7.47;6.68;;;18.30;99.90;;;;;;5082542;28;20171;-57
2023/09/09 00:06:24;;;;;;;6.97;6.28;;;18.30;99.90;;;;;;5078344;28;20056;-60
2023/09/09 00:08:50;;;;;;;7.60;6.82;;;18.30;99.90;;;;;;5064763;28;20044;-60
2023/09/09 00:11:19;;;;;;;6.72;6.13;;;18.30;99.90;;;;;;5082690;28;20056;-60
2023/09/09 00:13:45;;;;;;;11.98;7.47;;;18.20;99.90;;;;;;5080695;28;20051;-60
2023/09/09 00:16:11;;;;;;;7.55;6.60;;;18.20;99.90;;;;;;5065519;28;20048;-60
2023/09/09 00:18:37;;;;;;;8.23;7.43;;;18.20;99.90;;;;;;5071613;28;20056;-57
2023/09/09 00:21:04;;;;;;;9.27;6.28;;;18.20;99.90;;;;;;5079146;28;20141;-59
2023/09/09 00:23:30;;;;;;;10.00;6.90;;;18.10;99.90;;;;;;5077337;28;20059;-60
2023/09/09 00:25:56;;;;;;;7.32;6.30;;;18.10;99.90;;;;;;5078345;28;20063;-60
2023/09/09 00:28:23;;;;;;;9.35;7.22;;;18.10;99.90;;;;;;5081538;28;20051;-60
2023/09/09 00:30:49;;;;;;;8.02;7.15;;;18.10;99.90;;;;;;5075789;28;20052;-60
2023/09/09 00:35:45;;;;;;;9.48;8.48;;;18.10;99.90;;;;;;5059181;28;20044;-60
2023/09/09 00:38:12;;;;;;;12.60;9.00;;;18.00;99.90;;;;;;5090335;28;20125;-58
2023/09/09 00:40:38;;;;;;;10.68;9.52;;;18.00;99.90;;;;;;5078999;28;20164;-58
2023/09/09 00:43:03;;;;;;;10.70;9.50;;;17.90;99.90;;;;;;5082232;28;20135;-57
2023/09/09 00:45:29;;;;;;;11.60;9.82;;;17.90;99.90;;;;;;5080309;28;20413;-57
2023/09/09 00:47:55;;;;;;;11.15;8.95;;;17.80;99.90;;;;;;5082961;28;20071;-57
2023/09/09 00:50:23;;;;;;;10.52;8.80;;;17.80;99.90;;;;;;5062534;28;20520;-57
2023/09/09 00:52:49;;;;;;;14.88;9.52;;;17.80;99.90;;;;;;5077991;28;20186;-57
2023/09/09 00:55:15;;;;;;;10.73;8.35;;;17.80;99.90;;;;;;5082297;28;20052;-58
2023/09/09 00:57:40;;;;;;;12.50;9.35;;;17.80;99.90;;;;;;5061075;28;20101;-56
2023/09/09 01:00:10;;;;;;;7.13;6.47;;;17.80;99.90;;;;;;5082131;28;20082;-57
2023/09/09 01:02:40;;;;;;;6.82;6.13;;;17.70;99.90;;;;;;5078239;28;20044;-60
2023/09/09 01:05:07;;;;;;;8.85;6.63;;;17.70;99.90;;;;;;5082445;28;20056;-60
2023/09/09 01:07:44;;;;;;;7.93;7.15;;;17.70;99.90;;;;;;5079219;28;20502;-60
2023/09/09 01:10:10;;;;;;;6.65;5.97;;;17.70;99.90;;;;;;5079522;28;20804;-59
2023/09/09 01:12:36;;;;;;;7.30;6.60;;;17.70;99.90;;;;;;5057565;28;20098;-57
2023/09/09 01:15:04;;;;;;;7.85;6.82;;;17.60;99.90;;;;;;5079903;28;20052;-58
2023/09/09 01:17:30;;;;;;;8.75;7.22;;;17.70;99.90;;;;;;5078736;28;20253;-57
2023/09/09 01:19:58;;;;;;;7.75;7.03;;;17.60;99.90;;;;;;5074716;28;20485;-57
2023/09/09 01:22:24;;;;;;;6.72;6.13;;;17.60;99.90;;;;;;5070474;28;20067;-58
2023/09/09 01:24:49;;;;;;;8.15;7.07;;;17.60;99.90;;;;;;5074304;28;20052;-58
2023/09/09 01:27:15;;;;;;;11.25;8.95;;;17.60;99.90;;;;;;5073242;28;20060;-58
2023/09/09 01:29:41;;;;;;;8.70;7.80;;;17.60;99.90;;;;;;5079428;28;20056;-57
2023/09/09 01:32:06;;;;;;;10.10;9.10;;;17.60;99.90;;;;;;5073491;28;20064;-58
2023/09/09 01:34:32;;;;;;;9.07;8.18;;;17.60;99.90;;;;;;5066084;28;20498;-58
2023/09/09 01:36:58;;;;;;;10.05;8.15;;;17.60;99.90;;;;;;5063905;28;20561;-57
2023/09/09 01:39:24;;;;;;;8.63;7.68;;;17.50;99.90;;;;;;5078573;28;20743;-57
2023/09/09 01:41:50;;;;;;;10.30;8.02;;;17.50;99.90;;;;;;5045052;28;20085;-57
2023/09/09 01:44:19;;;;;;;11.30;8.32;;;17.50;99.90;;;;;;5082090;28;20062;-57
2023/09/09 01:46:45;;;;;;;9.07;8.18;;;17.50;99.90;;;;;;5079720;28;20830;-57
2023/09/09 01:49:10;;;;;;;10.35;9.35;;;17.50;99.90;;;;;;5080595;28;20482;-57
2023/09/09 01:51:36;;;;;;;10.52;9.15;;;17.50;99.90;;;;;;5078919;28;20513;-57
2023/09/09 01:54:02;;;;;;;9.85;8.68;;;17.50;99.90;;;;;;5069338;28;20128;-57
2023/09/09 01:56:27;;;;;;;11.43;9.65;;;17.50;99.90;;;;;;5079251;28;20075;-57
2023/09/09 01:58:53;;;;;;;13.38;10.30;;;17.40;99.90;;;;;;5082238;28;20436;-57
2023/09/09 02:01:19;;;;;;;12.90;11.57;;;17.40;99.90;;;;;;5080953;28;20456;-56
2023/09/09 02:03:45;;;;;;;18.23;13.45;;;17.40;99.90;;;;;;5066052;28;20052;-57
2023/09/09 02:06:10;;;;;;;14.77;13.05;;;17.40;99.90;;;;;;5081709;28;20391;-57
2023/09/09 02:08:36;;;;;;;15.32;13.45;;;17.30;99.90;;;;;;5068481;28;20426;-58
2023/09/09 02:11:01;;;;;;;17.40;14.25;;;17.20;99.90;;;;;;5081784;28;20149;-57
2023/09/09 02:13:27;;;;;;;16.20;13.60;;;17.20;99.90;;;;;;5078621;28;20051;-57
2023/09/09 02:16:05;;;;;;;19.08;15.98;;;17.20;99.90;;;;;;5081763;28;20119;-57
2023/09/09 02:18:30;;;;;;;15.77;13.98;;;17.10;99.90;;;;;;5078357;28;20055;-58
2023/09/09 02:20:59;;;;;;;17.48;15.57;;;17.10;99.90;;;;;;5080987;28;20060;-58
2023/09/09 02:23:25;;;;;;;18.45;16.48;;;17.20;99.90;;;;;;5079040;28;20056;-57
2023/09/09 02:25:51;;;;;;;16.15;14.45;;;17.20;99.90;;;;;;5080194;28;20669;-57
2023/09/09 02:28:20;;;;;;;16.75;13.85;;;17.20;99.90;;;;;;5072897;28;20052;-57
2023/09/09 02:30:45;;;;;;;14.35;13.00;;;17.10;99.90;;;;;;5060098;28;20056;-57
2023/09/09 02:33:12;;;;;;;14.27;11.38;;;17.10;99.90;;;;;;5065395;28;20052;-58
2023/09/09 02:35:44;;;;;;;12.98;11.65;;;17.10;99.90;;;;;;5068161;28;20064;-57
2023/09/09 02:38:10;;;;;;;16.67;13.13;;;17.10;99.90;;;;;;5078230;28;20048;-57
2023/09/09 02:40:36;;;;;;;14.88;12.68;;;17.10;99.90;;;;;;5076360;28;20802;-58
2023/09/09 02:43:02;;;;;;;15.50;11.38;;;17.20;99.90;;;;;;5067763;28;20072;-57
2023/09/09 02:45:28;;;;;;;16.52;14.48;;;17.10;99.90;;;;;;5078402;28;20469;-57
2023/09/09 02:47:53;;;;;;;15.93;13.18;;;17.10;99.90;;;;;;5079978;28;20047;-58
2023/09/09 02:50:19;;;;;;;15.80;13.05;;;17.10;99.90;;;;;;5079563;28;20569;-55
2023/09/09 02:52:48;;;;;;;14.20;11.90;;;17.10;99.90;;;;;;5078135;28;20056;-57
2023/09/09 02:55:14;;;;;;;14.73;12.23;;;17.10;99.90;;;;;;5080825;28;20121;-57
2023/09/09 02:57:39;;;;;;;12.48;11.18;;;17.00;99.90;;;;;;5075778;28;20052;-57
2023/09/09 03:00:07;;;;;;;12.50;10.52;;;17.10;99.90;;;;;;5078241;28;20060;-57
2023/09/09 03:02:33;;;;;;;14.15;11.75;;;17.00;99.90;;;;;;5060362;28;20052;-57
2023/09/09 03:04:59;;;;;;;14.07;11.27;;;17.00;99.90;;;;;;5076957;28;20051;-57
2023/09/09 03:07:25;;;;;;;14.23;12.43;;;17.00;99.90;;;;;;5065757;28;20052;-57
2023/09/09 03:09:50;;;;;;;14.75;12.05;;;17.10;99.90;;;;;;5064487;28;20049;-58
2023/09/09 03:12:20;;;;;;;14.82;12.23;;;17.00;99.90;;;;;;5076169;28;20051;-58
2023/09/09 03:14:50;;;;;;;14.90;11.60;;;17.00;99.90;;;;;;5079624;28;20569;-58
2023/09/09 03:17:19;;;;;;;13.88;10.95;;;17.00;99.90;;;;;;5078067;28;20056;-57
2023/09/09 03:19:45;;;;;;;13.52;11.77;;;17.00;99.90;;;;;;5081584;28;20055;-57
2023/09/09 03:22:11;;;;;;;14.05;11.02;;;17.00;99.90;;;;;;5082603;28;20082;-58
2023/09/09 03:24:36;;;;;;;14.23;12.73;;;17.00;99.90;;;;;;5063169;28;20134;-58
2023/09/09 03:27:02;;;;;;;14.85;13.35;;;17.00;99.90;;;;;;5083613;28;20417;-58
2023/09/09 03:29:28;;;;;;;14.07;12.57;;;17.00;99.90;;;;;;5080456;28;20063;-58
2023/09/09 03:31:54;;;;;;;17.95;15.23;;;17.00;99.90;;;;;;5065100;28;20610;-58
2023/09/09 03:34:19;;;;;;;16.63;14.93;;;16.90;99.90;;;;;;5084112;28;20524;-57
2023/09/09 03:36:45;;;;;;;18.83;15.57;;;16.90;99.90;;;;;;5081506;28;20420;-58
2023/09/09 03:39:11;;;;;;;17.10;13.70;;;16.80;99.90;;;;;;5082478;28;20501;-58
2023/09/09 03:41:38;;;;;;;16.48;13.98;;;16.80;99.90;;;;;;5060940;28;20083;-57
2023/09/09 03:44:04;;;;;;;16.65;13.88;;;16.80;99.90;;;;;;5077906;28;20051;-57
2023/09/09 03:46:30;;;;;;;16.60;14.32;;;16.80;99.90;;;;;;5057458;28;20688;-57
2023/09/09 03:48:55;;;;;;;13.38;11.93;;;16.80;99.90;;;;;;5068353;28;20142;-57
2023/09/09 03:51:21;;;;;;;11.90;10.38;;;16.80;99.90;;;;;;5080449;28;20566;-57
2023/09/09 03:53:47;;;;;;;11.20;10.13;;;16.70;99.90;;;;;;5081791;28;20052;-57
2023/09/09 03:56:13;;;;;;;13.68;11.20;;;16.70;99.90;;;;;;5042052;28;1188207;-57
2023/09/09 03:58:38;;;;;;;14.32;12.02;;;16.70;99.90;;;;;;5068330;28;21105;-58
2023/09/09 04:01:06;;;;;;;15.70;14.00;;;16.80;99.90;;;;;;5077045;28;20056;-58
2023/09/09 04:03:34;;;;;;;16.25;14.25;;;16.80;99.90;;;;;;5080550;28;20099;-57
2023/09/09 04:06:03;;;;;;;15.20;13.43;;;16.80;99.90;;;;;;5082614;28;20052;-57
2023/09/09 04:08:29;;;;;;;19.25;16.30;;;16.80;99.90;;;;;;5078911;28;20059;-57
2023/09/09 04:10:55;;;;;;;16.25;14.52;;;16.70;99.90;;;;;;5053177;28;20053;-58
2023/09/09 04:13:21;;;;;;;15.98;13.75;;;16.70;99.90;;;;;;5075578;28;20070;-58
2023/09/09 04:15:46;;;;;;;13.70;12.23;;;16.70;99.90;;;;;;5067146;28;21226;-58
2023/09/09 04:18:12;;;;;;;16.05;13.10;;;16.70;99.90;;;;;;5069215;28;20147;-57
2023/09/09 04:20:38;;;;;;;14.57;12.10;;;16.70;99.90;;;;;;5079633;28;20080;-58
2023/09/09 04:23:04;;;;;;;11.73;10.30;;;16.60;99.90;;;;;;5083153;28;20526;-58
2023/09/09 04:25:30;;;;;;;14.45;10.52;;;16.60;99.90;;;;;;5080708;28;20881;-58
2023/09/09 04:27:56;;;;;;;15.07;12.18;;;16.60;99.90;;;;;;5081759;28;20803;-58
2023/09/09 04:30:21;;;;;;;17.75;13.60;;;16.60;99.90;;;;;;5080403;28;20155;-57
2023/09/09 04:32:47;;;;;;;17.13;13.40;;;16.60;99.90;;;;;;5079951;28;20059;-57
2023/09/09 04:35:13;;;;;;;17.63;13.98;;;16.60;99.90;;;;;;5083066;28;20182;-57
2023/09/09 04:37:39;;;;;;;16.65;13.85;;;16.60;99.90;;;;;;5075114;28;21302;-59
2023/09/09 04:40:06;;;;;;;15.48;13.90;;;16.60;99.90;;;;;;5082757;28;20056;-58
2023/09/09 04:42:35;;;;;;;15.68;13.52;;;16.60;99.90;;;;;;5078422;28;20060;-58
2023/09/09 04:45:01;;;;;;;17.33;14.75;;;16.50;99.90;;;;;;5082252;28;20067;-57
2023/09/09 04:47:26;;;;;;;22.92;17.00;;;16.50;99.90;;;;;;5076555;28;20056;-56
2023/09/09 04:49:52;;;;;;;20.48;15.82;;;16.50;99.90;;;;;;5082075;28;20785;-57
2023/09/09 04:52:19;;;;;;;24.38;18.70;;;16.60;99.90;;;;;;5064801;28;20060;-58
2023/09/09 04:54:45;;;;;;;24.73;21.23;;;16.50;99.90;;;;;;5077441;28;20054;-58
2023/09/09 04:57:11;;;;;;;22.85;20.50;;;16.50;99.90;;;;;;5081238;28;20055;-58
2023/09/09 04:59:38;;;;;;;34.63;22.42;;;16.40;99.90;;;;;;5067776;28;20560;-57
2023/09/09 05:02:03;;;;;;;25.65;20.92;;;16.50;99.90;;;;;;5061994;28;20304;-57
2023/09/09 05:04:29;;;;;;;28.23;22.83;;;16.40;99.90;;;;;;5073170;28;20570;-57
2023/09/09 05:06:55;;;;;;;24.95;22.23;;;16.50;99.90;;;;;;5063795;28;20135;-58
2023/09/09 05:09:21;;;;;;;27.50;22.90;;;16.40;99.90;;;;;;5077781;28;20138;-57
2023/09/09 05:11:46;;;;;;;23.70;21.13;;;16.50;99.90;;;;;;5074639;28;20464;-58
2023/09/09 05:14:12;;;;;;;27.20;21.48;;;16.50;99.90;;;;;;5077499;28;20967;-58
2023/09/09 05:16:37;;;;;;;26.35;20.38;;;16.50;99.90;;;;;;5061508;28;20793;-58
2023/09/09 05:19:03;;;;;;;29.42;24.13;;;16.50;99.90;;;;;;5066070;28;20117;-58
2023/09/09 05:21:29;;;;;;;27.48;23.15;;;16.60;99.90;;;;;;5076894;28;20413;-59
2023/09/09 05:23:55;;;;;;;28.98;23.08;;;16.60;99.90;;;;;;5061638;28;20059;-58
2023/09/09 05:26:21;;;;;;;31.52;24.50;;;16.70;99.90;;;;;;5078234;28;20182;-60
2023/09/09 05:28:47;;;;;;;32.65;25.83;;;16.70;99.90;;;;;;5058390;28;20058;-57
2023/09/09 05:31:16;;;;;;;25.63;21.75;;;16.80;99.90;;;;;;5059969;28;20052;-60
2023/09/09 05:33:41;;;;;;;26.40;23.40;;;16.80;99.90;;;;;;5069219;28;21422;-60
2023/09/09 05:36:07;;;;;;;28.77;23.67;;;16.90;99.90;;;;;;5055017;28;20059;-57
2023/09/09 05:38:32;;;;;;;33.58;23.55;;;17.00;99.90;;;;;;5072921;28;20051;-58
2023/09/09 05:40:58;;;;;;;29.90;25.75;;;16.90;99.90;;;;;;5081089;28;20532;-58
2023/09/09 05:43:24;;;;;;;28.65;23.80;;;17.10;99.90;;;;;;5075654;28;20060;-57
2023/09/09 05:45:49;;;;;;;29.08;24.50;;;17.40;99.90;;;;;;5080889;28;20059;-58
2023/09/09 05:48:15;;;;;;;30.60;24.77;;;17.20;99.90;;;;;;5063764;28;20539;-58
2023/09/09 05:50:41;;;;;;;31.25;26.20;;;17.30;99.90;;;;;;5075321;28;20065;-57
2023/09/09 05:53:06;;;;;;;28.38;24.65;;;17.30;99.90;;;;;;5062148;28;20509;-57
2023/09/09 05:55:32;;;;;;;27.73;23.65;;;17.40;99.90;;;;;;5060148;28;20054;-57
2023/09/09 05:57:58;;;;;;;28.20;23.92;;;17.50;99.90;;;;;;5079107;28;20055;-57
2023/09/09 06:00:23;;;;;;;25.60;22.73;;;17.60;99.90;;;;;;5076358;28;20051;-58
2023/09/09 06:02:49;;;;;;;26.17;23.00;;;17.80;99.90;;;;;;5079293;28;20431;-58
2023/09/09 06:05:15;;;;;;;26.67;22.90;;;17.90;99.90;;;;;;5058594;28;20147;-57
2023/09/09 06:07:41;;;;;;;28.05;23.13;;;18.00;99.90;;;;;;5070400;28;20068;-57
2023/09/09 06:10:07;;;;;;;25.00;22.00;;;18.20;99.90;;;;;;5052977;28;20056;-57
2023/09/09 06:12:33;;;;;;;25.55;21.90;;;18.30;99.90;;;;;;5069555;28;20052;-57
2023/09/09 06:14:59;;;;;;;27.02;22.75;;;18.40;99.90;;;;;;5051959;28;20053;-57
2023/09/09 06:17:25;;;;;;;25.75;22.90;;;18.50;99.90;;;;;;5075020;28;20064;-56
2023/09/09 06:19:50;;;;;;;29.10;23.38;;;18.70;99.90;;;;;;5068861;28;20062;-58
2023/09/09 06:22:20;;;;;;;28.08;23.83;;;18.80;99.90;;;;;;5062322;28;20060;-57
2023/09/09 06:24:45;;;;;;;26.90;22.35;;;18.90;99.90;;;;;;5077796;28;20059;-57
2023/09/09 06:27:11;;;;;;;28.65;23.85;;;19.10;99.90;;;;;;5063721;28;20081;-57
2023/09/09 06:29:37;;;;;;;28.40;23.95;;;19.20;99.90;;;;;;5072607;28;20496;-58
2023/09/09 06:32:06;;;;;;;27.15;22.80;;;19.40;99.90;;;;;;5074830;28;20048;-58
2023/09/09 06:34:32;;;;;;;28.13;22.08;;;19.60;99.90;;;;;;5074446;28;20064;-59
2023/09/09 06:36:57;;;;;;;23.40;20.83;;;19.70;99.90;;;;;;5078182;28;20048;-58
2023/09/09 06:39:23;;;;;;;23.88;21.30;;;19.90;99.90;;;;;;5058065;28;20126;-58
2023/09/09 06:41:50;;;;;;;24.52;19.92;;;20.10;99.90;;;;;;5079717;28;20052;-58
2023/09/09 06:44:15;;;;;;;26.00;22.67;;;20.30;99.90;;;;;;5060859;28;20048;-57
2023/09/09 06:46:41;;;;;;;25.25;22.20;;;20.50;99.90;;;;;;5054681;28;20498;-57
2023/09/09 06:49:06;;;;;;;25.13;22.33;;;20.70;99.90;;;;;;5074057;28;20090;-58
2023/09/09 06:51:32;;;;;;;27.10;21.45;;;21.00;99.90;;;;;;5077032;28;20059;-58
2023/09/09 06:53:58;;;;;;;25.55;21.20;;;21.20;99.90;;;;;;5076677;28;20512;-58
2023/09/09 06:56:23;;;;;;;22.20;19.83;;;21.50;99.90;;;;;;5076545;28;20516;-57
2023/09/09 06:58:49;;;;;;;23.10;20.58;;;21.60;99.90;;;;;;5081762;28;20047;-57
2023/09/09 07:01:15;;;;;;;22.52;19.45;;;21.80;99.90;;;;;;5077641;28;20147;-57
2023/09/09 07:03:41;;;;;;;24.38;19.27;;;21.90;99.90;;;;;;5060849;28;20089;-57
2023/09/09 07:06:06;;;;;;;20.35;17.92;;;22.20;99.90;;;;;;5070440;28;20103;-57
2023/09/09 07:08:32;;;;;;;26.73;19.67;;;22.30;99.90;;;;;;5078467;28;20079;-57
2023/09/09 07:10:58;;;;;;;24.58;21.23;;;22.40;99.90;;;;;;5064372;28;20055;-57
2023/09/09 07:13:24;;;;;;;24.77;20.50;;;22.50;99.90;;;;;;5070387;28;20056;-56
2023/09/09 07:15:53;;;;;;;22.15;19.42;;;22.60;99.90;;;;;;5060382;28;20460;-61
2023/09/09 07:18:20;;;;;;;23.02;19.08;;;22.70;99.90;;;;;;5039394;28;20064;-58
2023/09/09 07:20:46;;;;;;;20.65;16.08;;;23.10;99.90;;;;;;5068431;28;20101;-62
2023/09/09 07:23:19;;;;;;;17.42;15.57;;;23.20;99.90;;;;;;5073832;28;20056;-57
2023/09/09 07:25:48;;;;;;;20.90;13.83;;;23.40;99.90;;;;;;5071369;28;20071;-58
2023/09/09 07:28:14;;;;;;;15.45;13.95;;;23.60;99.90;;;;;;5064392;28;20052;-58
2023/09/09 07:30:39;;;;;;;17.50;14.25;;;23.70;99.90;;;;;;5070324;28;20415;-61
2023/09/09 07:33:05;;;;;;;16.50;13.05;;;23.90;99.90;;;;;;5070715;28;20056;-58
2023/09/09 07:35:32;;;;;;;16.45;14.65;;;24.10;99.90;;;;;;5071831;28;20060;-60
2023/09/09 07:37:58;;;;;;;14.68;13.27;;;24.20;99.90;;;;;;5076678;28;20048;-58
2023/09/09 07:40:24;;;;;;;17.35;13.98;;;24.40;99.90;;;;;;5073629;28;20048;-58
2023/09/09 07:42:50;;;;;;;15.43;13.00;;;24.60;99.90;;;;;;5071233;28;20060;-58
2023/09/09 07:47:42;;;;;;;15.10;13.50;;;24.70;99.90;;;;;;5075805;28;20051;-58
2023/09/09 07:50:08;;;;;;;16.73;13.90;;;24.80;99.90;;;;;;5070539;28;20540;-58
2023/09/09 07:52:34;;;;;;;17.30;13.43;;;24.90;99.90;;;;;;5069405;28;20146;-58
2023/09/09 07:54:59;;;;;;;15.63;13.02;;;25.10;99.90;;;;;;5060597;28;20067;-58
2023/09/09 07:57:25;;;;;;;14.93;13.38;;;25.40;99.90;;;;;;5080208;28;20136;-57
2023/09/09 07:59:51;;;;;;;17.10;12.80;;;25.40;99.90;;;;;;5075227;28;20493;-59
2023/09/09 08:02:19;;;;;;;13.93;12.50;;;25.60;99.90;;;;;;5068266;28;20052;-58
2023/09/09 08:04:45;;;;;;;14.57;12.55;;;25.70;99.90;;;;;;5059926;28;20525;-58
2023/09/09 08:07:11;;;;;;;18.63;13.10;;;25.90;99.90;;;;;;5054708;28;20045;-58
2023/09/09 08:09:37;;;;;;;15.68;13.18;;;26.10;99.90;;;;;;5041794;28;20056;-57
2023/09/09 08:12:03;;;;;;;15.43;13.80;;;26.20;99.90;;;;;;5055249;28;20071;-58
2023/09/09 08:14:30;;;;;;;14.32;12.82;;;26.10;99.90;;;;;;5053402;28;20077;-57
2023/09/09 08:16:56;;;;;;;16.48;14.63;;;26.40;99.90;;;;;;5067298;28;20056;-58
2023/09/09 08:19:22;;;;;;;16.20;14.00;;;26.70;99.90;;;;;;5029435;28;1108503;-58
2023/09/09 08:21:47;;;;;;;17.08;15.32;;;27.00;99.90;;;;;;5072147;28;20064;-60
2023/09/09 08:24:13;;;;;;;18.52;16.55;;;27.30;99.90;;;;;;5069059;28;20505;-58
2023/09/09 08:26:39;;;;;;;20.45;15.65;;;27.10;99.90;;;;;;5056707;28;20121;-61
2023/09/09 08:29:04;;;;;;;19.30;16.92;;;27.60;99.90;;;;;;5073108;28;20059;-58
2023/09/09 08:31:30;;;;;;;23.13;16.15;;;27.80;99.90;;;;;;5072948;28;20421;-58
2023/09/09 08:33:56;;;;;;;18.55;15.95;;;28.00;99.90;;;;;;5078231;28;20146;-59
2023/09/09 08:36:21;;;;;;;16.75;15.05;;;28.10;99.90;;;;;;5077891;28;20060;-58
2023/09/09 08:38:47;;;;;;;17.92;16.08;;;28.60;99.90;;;;;;5080799;28;20505;-58
2023/09/09 08:41:20;;;;;;;18.23;16.08;;;28.80;99.90;;;;;;5061614;28;20064;-58
2023/09/09 08:43:56;;;;;;;19.45;17.45;;;29.20;99.90;;;;;;5043615;28;20056;-59
2023/09/09 08:46:22;;;;;;;18.50;16.50;;;29.40;99.90;;;;;;5059018;28;20053;-57
2023/09/09 08:48:52;;;;;;;17.40;15.65;;;29.60;99.90;;;;;;5062876;28;20149;-58
2023/09/09 08:51:20;;;;;;;22.95;18.45;;;29.80;99.90;;;;;;5067410;28;20505;-58
2023/09/09 08:53:49;;;;;;;20.52;17.58;;;29.30;99.90;;;;;;5068516;28;20052;-58
2023/09/09 08:56:19;;;;;;;18.90;16.85;;;29.10;99.90;;;;;;5071027;28;20056;-58
2023/09/09 08:58:45;;;;;;;21.65;16.58;;;29.00;99.90;;;;;;5067667;28;20783;-58
2023/09/09 09:01:12;;;;;;;17.52;15.13;;;29.40;99.90;;;;;;5067030;28;20052;-58
2023/09/09 09:03:38;;;;;;;18.08;16.17;;;29.60;99.90;;;;;;5048950;28;20560;-59
2023/09/09 09:06:05;;;;;;;17.00;15.20;;;30.20;99.90;;;;;;5038580;28;20076;-59
2023/09/09 09:08:31;;;;;;;16.25;14.30;;;30.20;99.90;;;;;;5060641;28;20053;-59
2023/09/09 09:10:58;;;;;;;17.02;15.23;;;30.80;99.90;;;;;;5067808;28;20067;-58
2023/09/09 09:13:24;;;;;;;17.23;15.40;;;30.60;99.90;;;;;;5056128;28;20620;-58
2023/09/09 09:15:50;;;;;;;16.27;14.57;;;30.70;99.90;;;;;;5059279;28;20071;-58
2023/09/09 09:18:19;;;;;;;16.65;14.80;;;30.50;99.90;;;;;;5047668;28;20057;-58
2023/09/09 09:20:45;;;;;;;16.58;14.93;;;31.10;99.90;;;;;;5036609;28;20049;-58
2023/09/09 09:23:13;;;;;;;18.92;14.85;;;31.40;99.90;;;;;;5065798;28;20059;-59
2023/09/09 09:25:44;;;;;;;15.27;13.25;;;30.80;99.90;;;;;;5064240;28;20060;-60
2023/09/09 09:28:14;;;;;;;15.80;13.57;;;30.90;99.90;;;;;;5071209;28;20502;-59
2023/09/09 09:30:40;;;;;;;15.48;13.85;;;31.30;99.90;;;;;;5063323;28;20079;-58
2023/09/09 09:33:06;;;;;;;15.60;13.50;;;31.50;99.90;;;;;;5068153;28;20580;-59
2023/09/09 09:35:34;;;;;;;14.82;12.95;;;31.10;99.90;;;;;;5047767;28;20064;-58
2023/09/09 09:38:12;;;;;;;26.73;13.70;;;31.60;99.90;;;;;;5060606;28;20102;-58
2023/09/09 09:40:39;;;;;;;16.77;14.98;;;31.80;99.90;;;;;;5068776;28;20068;-57
2023/09/09 09:43:04;;;;;;;18.35;16.40;;;32.50;99.90;;;;;;5060140;28;20065;-58
2023/09/09 09:45:30;;;;;;;17.05;15.27;;;31.50;99.90;;;;;;5067813;28;20071;-60
2023/09/09 09:47:58;;;;;;;16.70;14.85;;;30.90;99.90;;;;;;5077553;28;20611;-58
2023/09/09 09:50:30;;;;;;;17.60;15.80;;;31.10;99.90;;;;;;5073705;28;20452;-58
2023/09/09 09:53:07;;;;;;;33.22;15.73;;;30.80;99.90;;;;;;5062319;28;20059;-59
2023/09/09 09:55:34;;;;;;;24.02;14.85;;;30.60;99.90;;;;;;5076155;28;20083;-60
2023/09/09 09:58:07;;;;;;;17.30;15.30;;;30.90;99.90;;;;;;5076599;28;20048;-59
2023/09/09 10:00:33;;;;;;;16.73;15.05;;;30.50;99.90;;;;;;5066161;28;20049;-59
2023/09/09 10:03:01;;;;;;;16.33;14.60;;;30.40;99.90;;;;;;5069266;28;20566;-59
2023/09/09 10:05:33;;;;;;;17.27;15.32;;;30.90;99.90;;;;;;5070615;28;20052;-59
2023/09/09 10:08:19;;;;;;;14.20;12.73;;;31.40;99.90;;;;;;5048125;28;20148;-60
2023/09/09 10:11:07;;;;;;;18.95;13.75;;;31.50;99.90;;;;;;5050534;28;21501;-59
2023/09/09 10:13:48;;;;;;;16.58;14.48;;;31.60;99.90;;;;;;5071828;28;20087;-59
2023/09/09 10:19:07;;;;;;;17.65;13.98;;;32.50;99.90;;;;;;5071667;28;20066;-59
2023/09/09 10:21:34;;;;;;;19.95;14.25;;;32.20;99.90;;;;;;5071816;28;20044;-58
2023/09/09 10:24:03;;;;;;;12.98;11.57;;;32.80;99.90;;;;;;5072478;28;20070;-58
2023/09/09 10:26:30;;;;;;;15.65;13.40;;;33.00;99.90;;;;;;5049240;28;20052;-60
2023/09/09 10:28:58;;;;;;;13.27;11.82;;;33.40;99.90;;;;;;5059201;28;20059;-59
2023/09/09 10:31:27;;;;;;;15.15;13.85;;;33.20;99.90;;;;;;5049202;28;20141;-62
2023/09/09 10:33:56;;;;;;;14.55;13.10;;;32.70;99.90;;;;;;5065732;28;20063;-58
2023/09/09 10:36:23;;;;;;;14.40;12.95;;;32.90;99.90;;;;;;5068034;28;20650;-58
2023/09/09 10:38:52;;;;;;;13.73;12.38;;;32.40;99.90;;;;;;5059211;28;20053;-59
2023/09/09 10:41:21;;;;;;;15.05;13.20;;;32.30;99.90;;;;;;5055661;28;20071;-61
2023/09/09 10:43:47;;;;;;;13.57;11.77;;;32.50;99.90;;;;;;5050043;28;20075;-62
2023/09/09 10:46:13;;;;;;;12.98;11.75;;;32.80;99.90;;;;;;5063363;28;20051;-59
2023/09/09 10:48:42;;;;;;;12.18;11.02;;;33.00;99.90;;;;;;5066629;28;20124;-58
2023/09/09 10:51:08;;;;;;;13.23;10.68;;;32.50;99.90;;;;;;5065758;28;20572;-59
2023/09/09 10:53:35;;;;;;;15.80;10.07;;;32.70;99.90;;;;;;5050693;28;20066;-59
2023/09/09 10:56:21;;;;;;;11.73;10.02;;;32.60;99.90;;;;;;5070467;28;20048;-63
2023/09/09 10:58:50;;;;;;;12.60;11.30;;;32.90;99.90;;;;;;5056194;28;20049;-59
2023/09/09 11:01:20;;;;;;;10.82;9.70;;;32.50;99.90;;;;;;5064392;28;20155;-62
2023/09/09 11:03:50;;;;;;;11.15;8.98;;;32.70;99.90;;;;;;5064822;28;20067;-62
2023/09/09 11:08:41;;;;;;;11.40;10.27;;;32.80;99.90;;;;;;5062924;28;20071;-65
2023/09/09 11:14:00;;;;;;;10.85;9.75;;;33.30;99.90;;;;;;5060595;28;20052;-60
2023/09/09 11:16:36;;;;;;;11.55;8.77;;;33.00;99.90;;;;;;5067394;28;20052;-60
2023/09/09 11:19:06;;;;;;;9.65;7.65;;;33.40;99.90;;;;;;5071703;28;20138;-67
2023/09/09 11:21:34;;;;;;;11.10;9.93;;;33.80;99.90;;;;;;5068291;28;20065;-65
2023/09/09 11:24:02;;;;;;;13.60;9.38;;;34.40;99.90;;;;;;5053800;28;20064;-68
2023/09/09 11:26:28;;;;;;;8.88;8.00;;;36.30;99.90;;;;;;5071547;28;20161;-65
2023/09/09 11:28:54;;;;;;;10.15;7.18;;;37.60;99.90;;;;;;5074747;28;20087;-58
2023/09/09 11:31:24;;;;;;;8.27;7.55;;;39.00;99.90;;;;;;5074407;28;20485;-63
2023/09/09 11:33:50;;;;;;;8.60;7.72;;;40.30;99.90;;;;;;5072657;28;20135;-59
2023/09/09 11:38:42;;;;;;;15.38;7.93;;;40.70;98.90;;;;;;5077014;28;20489;-59
2023/09/09 11:41:08;;;;;;;7.70;6.50;;;41.30;98.20;;;;;;5070560;28;20230;-60
2023/09/09 11:43:33;;;;;;;9.35;7.93;;;41.80;97.10;;;;;;5074432;28;20048;-58
2023/09/09 11:45:59;;;;;;;9.32;7.50;;;40.70;97.70;;;;;;5077083;28;20064;-59
2023/09/09 11:48:26;;;;;;;8.80;8.00;;;39.70;96.70;;;;;;5056390;28;20157;-59
2023/09/09 11:50:52;;;;;;;10.98;8.40;;;38.10;97.10;;;;;;5047524;28;20082;-59
2023/09/09 11:53:22;;;;;;;13.05;8.65;;;38.40;98.10;;;;;;5066500;28;20143;-58
2023/09/09 11:55:54;;;;;;;8.63;7.80;;;37.60;98.90;;;;;;5077661;28;20056;-57
2023/09/09 11:58:20;;;;;;;10.93;9.83;;;36.00;99.30;;;;;;5052787;28;20099;-57
2023/09/09 12:00:46;;;;;;;9.80;8.70;;;34.90;99.90;;;;;;5046871;28;20405;-58
2023/09/09 12:03:20;;;;;;;10.35;9.00;;;34.10;99.90;;;;;;5073264;28;20054;-58
2023/09/09 12:05:48;;;;;;;10.43;7.60;;;33.80;99.90;;;;;;5073584;28;20409;-59
2023/09/09 12:08:14;;;;;;;12.93;9.80;;;34.00;99.90;;;;;;5047283;28;20060;-59
2023/09/09 12:10:40;;;;;;;11.05;8.48;;;33.00;99.90;;;;;;5067654;28;20067;-59
2023/09/09 12:13:06;;;;;;;9.90;8.55;;;33.30;99.90;;;;;;5059274;28;20049;-58
2023/09/09 12:15:32;;;;;;;11.30;9.07;;;33.30;99.90;;;;;;5072970;28;20418;-63
2023/09/09 12:17:59;;;;;;;8.52;7.72;;;33.20;99.90;;;;;;5067635;28;20071;-58
2023/09/09 12:20:25;;;;;;;12.23;8.65;;;34.20;99.90;;;;;;5061534;28;20060;-61
2023/09/09 12:22:52;;;;;;;13.07;11.88;;;33.30;99.90;;;;;;5056323;28;20060;-59
2023/09/09 12:25:30;;;;;;;11.13;10.07;;;33.60;99.90;;;;;;5041948;28;20474;-62
2023/09/09 12:27:56;;;;;;;12.40;11.13;;;33.70;99.90;;;;;;5050744;28;20060;-59
2023/09/09 12:30:31;;;;;;;11.88;10.55;;;32.70;99.90;;;;;;5044833;28;20117;-59
2023/09/09 12:33:06;;;;;;;13.25;10.68;;;32.30;99.90;;;;;;5055554;28;20053;-59
2023/09/09 12:35:34;;;;;;;11.77;9.10;;;32.40;99.90;;;;;;5058262;28;20595;-59
2023/09/09 12:38:00;;;;;;;10.57;9.50;;;32.80;99.90;;;;;;5043987;28;20072;-60
2023/09/09 12:40:25;;;;;;;12.04;9.48;;;32.60;99.90;;;;;;5028519;28;1115001;-60
2023/09/09 12:42:55;;;;;;;11.23;9.23;;;32.90;99.90;;;;;;5066406;28;20076;-60
2023/09/09 12:45:24;;;;;;;11.07;9.98;;;33.00;99.90;;;;;;5066629;28;20479;-58